Time;durP1;ratioP1;P1;durP2;ratioP2;P2;SDS_P1;SDS_P2;PMS_P1;PMS_P2;Temp;Humidity;BMP_temperature;BMP_pressure;BME280_temperature;BME280_humidity;BME280_pressure;Samples;Min_cycle;Max_cycle;Signal;HPM_P1;HPM_P2
2023/04/20 00:00:58;;;;;;;;;;;;;;;25.96;45.29;96547.80;611149;230;67071;-62
2023/04/20 00:03:26;;;;;;;;;;;;;;;25.95;45.33;96544.31;611167;231;65108;-62
2023/04/20 00:05:53;;;;;;;;;;;;;;;25.95;45.07;96536.24;611532;231;67009;-62
2023/04/20 00:08:21;;;;;;;;;;;;;;;25.94;46.05;96536.55;611602;231;64730;-62
2023/04/20 00:10:48;;;;;;;;;;;;;;;25.93;46.41;96538.45;612271;231;64988;-62
2023/04/20 00:13:16;;;;;;;;;;;;;;;25.92;45.24;96534.19;611280;231;66914;-62
2023/04/20 00:15:43;;;;;;;;;;;;;;;25.91;46.17;96529.89;612106;231;64574;-62
2023/04/20 00:18:11;;;;;;;;;;;;;;;25.91;47.52;96532.58;611604;231;62957;-62
2023/04/20 00:20:38;;;;;;;;;;;;;;;25.89;46.53;96532.91;611462;231;65213;-62
2023/04/20 00:23:06;;;;;;;;;;;;;;;25.89;47.41;96535.60;611098;231;64656;-62
2023/04/20 00:25:34;;;;;;;;;;;;;;;25.88;45.28;96535.91;611426;231;62998;-62
2023/04/20 00:28:01;;;;;;;;;;;;;;;25.87;46.80;96526.25;610996;231;67249;-62
2023/04/20 00:30:29;;;;;;;;;;;;;;;25.88;47.45;96522.44;611127;231;64463;-62
2023/04/20 00:32:57;;;;;;;;;;;;;;;25.85;47.50;96520.38;611010;231;65665;-62
2023/04/20 00:35:25;;;;;;;;;;;;;;;25.84;47.99;96522.29;611088;231;66809;-62
2023/04/20 00:37:52;;;;;;;;;;;;;;;25.84;46.37;96518.81;610983;231;64381;-62
2023/04/20 00:40:20;;;;;;;;;;;;;;;25.84;47.28;96518.81;611918;231;62834;-62
2023/04/20 00:42:47;;;;;;;;;;;;;;;25.83;45.53;96522.56;611969;231;66853;-62
2023/04/20 00:45:16;;;;;;;;;;;;;;;25.82;46.27;96520.98;611679;231;67421;-62
2023/04/20 00:47:43;;;;;;;;;;;;;;;25.81;46.80;96522.89;611400;231;63631;-61
2023/04/20 00:50:11;;;;;;;;;;;;;;;25.81;47.29;96522.07;611490;232;64467;-62
2023/04/20 00:52:39;;;;;;;;;;;;;;;25.80;46.67;96521.28;612039;231;67057;-62
2023/04/20 00:55:07;;;;;;;;;;;;;;;25.79;46.90;96516.23;611843;231;63635;-62
2023/04/20 00:57:35;;;;;;;;;;;;;;;25.78;46.31;96514.62;611022;231;64708;-62
2023/04/20 01:00:05;;;;;;;;;;;;;;;25.79;47.42;96516.23;610898;231;66918;-62
2023/04/20 01:02:32;;;;;;;;;;;;;;;25.77;47.18;96513.84;611229;231;65116;-62
2023/04/20 01:05:00;;;;;;;;;;;;;;;25.77;47.66;96518.44;611933;231;64421;-62
2023/04/20 01:07:29;;;;;;;;;;;;;;;25.76;48.11;96522.25;612736;231;64835;-62
2023/04/20 01:09:57;;;;;;;;;;;;;;;25.75;48.14;96518.74;611684;231;62726;-62
2023/04/20 01:12:24;;;;;;;;;;;;;;;25.74;47.12;96513.69;611064;231;64321;-62
2023/04/20 01:14:52;;;;;;;;;;;;;;;25.73;46.27;96512.90;611048;232;66851;-62
2023/04/20 01:17:20;;;;;;;;;;;;;;;25.73;46.86;96512.90;611469;231;62732;-62
2023/04/20 01:19:48;;;;;;;;;;;;;;;25.72;48.92;96516.68;612503;231;66673;-61
2023/04/20 01:22:19;;;;;;;;;;;;;;;25.72;48.59;96516.68;611180;231;66466;-62
2023/04/20 01:24:47;;;;;;;;;;;;;;;25.71;47.76;96520.48;611032;232;62684;-62
2023/04/20 01:27:15;;;;;;;;;;;;;;;25.69;47.69;96511.93;611338;231;66630;-62
2023/04/20 01:29:44;;;;;;;;;;;;;;;25.69;48.73;96514.62;611064;232;66711;-62
2023/04/20 01:32:12;;;;;;;;;;;;;;;25.69;46.57;96514.62;611638;230;62954;-60
2023/04/20 01:34:40;;;;;;;;;;;;;;;25.68;46.54;96513.05;611317;231;66686;-59
2023/04/20 01:37:08;;;;;;;;;;;;;;;25.67;46.58;96514.95;611404;232;66825;-62
2023/04/20 01:39:37;;;;;;;;;;;;;;;25.66;46.21;96512.56;611438;232;65061;-62
2023/04/20 01:42:05;;;;;;;;;;;;;;;25.66;46.90;96517.94;613677;231;67264;-62
2023/04/20 01:44:32;;;;;;;;;;;;;;;25.65;47.24;96519.05;611327;232;66889;-62
2023/04/20 01:47:00;;;;;;;;;;;;;;;25.64;46.92;96504.00;610983;231;65095;-62
2023/04/20 01:49:28;;;;;;;;;;;;;;;25.63;47.96;96507.81;611067;231;66535;-62
2023/04/20 01:51:55;;;;;;;;;;;;;;;25.63;46.31;96507.81;611562;231;66805;-62
2023/04/20 01:54:23;;;;;;;;;;;;;;;25.63;47.98;96499.73;612190;231;62896;-62
2023/04/20 01:56:51;;;;;;;;;;;;;;;25.61;45.63;96500.03;611607;232;66820;-62
2023/04/20 01:59:18;;;;;;;;;;;;;;;25.61;46.71;96496.55;612309;231;66801;-62
2023/04/20 02:01:46;;;;;;;;;;;;;;;25.60;47.92;96498.45;611280;231;64738;-62
2023/04/20 02:04:13;;;;;;;;;;;;;;;25.59;45.93;96496.06;608150;232;66712;-62
2023/04/20 02:06:41;;;;;;;;;;;;;;;25.59;47.91;96496.06;611586;231;66733;-62
2023/04/20 02:09:09;;;;;;;;;;;;;;;25.58;47.01;96491.80;611391;231;62562;-62
2023/04/20 02:11:37;;;;;;;;;;;;;;;25.57;45.54;96488.33;611474;231;65634;-62
2023/04/20 02:14:06;;;;;;;;;;;;;;;25.57;47.72;96495.61;613259;230;66574;-61
2023/04/20 02:16:35;;;;;;;;;;;;;;;25.56;47.18;96486.72;611633;231;62864;-62
2023/04/20 02:19:03;;;;;;;;;;;;;;;25.55;46.25;96489.74;611315;231;67260;-62
2023/04/20 02:21:30;;;;;;;;;;;;;;;25.55;47.62;96490.53;610888;231;64686;-62
2023/04/20 02:23:58;;;;;;;;;;;;;;;25.53;47.72;96486.56;613364;230;65665;-61
2023/04/20 02:26:26;;;;;;;;;;;;;;;25.53;47.21;96489.26;611833;231;67768;-61
2023/04/20 02:28:54;;;;;;;;;;;;;;;25.52;47.04;96488.47;611038;231;67478;-62
2023/04/20 02:31:21;;;;;;;;;;;;;;;25.52;48.04;96488.47;610207;231;65112;-62
2023/04/20 02:33:49;;;;;;;;;;;;;;;25.51;48.21;96492.28;610815;232;67181;-62
2023/04/20 02:36:16;;;;;;;;;;;;;;;25.51;46.43;96488.77;611290;232;67046;-62
2023/04/20 02:38:44;;;;;;;;;;;;;;;25.49;46.83;96491.79;610837;232;64993;-62
2023/04/20 02:41:11;;;;;;;;;;;;;;;25.47;47.13;96481.33;610712;231;67218;-62
2023/04/20 02:43:39;;;;;;;;;;;;;;;25.48;47.75;96482.11;610752;231;64520;-62
2023/04/20 02:46:07;;;;;;;;;;;;;;;25.47;48.78;96488.61;615549;229;63934;-62
2023/04/20 02:48:35;;;;;;;;;;;;;;;25.47;48.08;96485.92;611771;231;67505;-62
2023/04/20 02:51:02;;;;;;;;;;;;;;;25.45;47.92;96483.56;610539;231;64941;-62
2023/04/20 02:53:31;;;;;;;;;;;;;;;25.45;48.50;96485.44;609906;232;41824;-62
2023/04/20 02:56:01;;;;;;;;;;;;;;;25.45;46.21;96485.44;602076;232;47401;-62
2023/04/20 02:58:42;;;;;;;;;;;;;;;25.43;47.00;96483.08;610815;232;44253;-61
2023/04/20 03:01:21;;;;;;;;;;;;;;;25.43;47.08;96484.98;607131;232;44223;-61
2023/04/20 03:03:49;;;;;;;;;;;;;;;25.42;48.84;96486.06;610983;231;67186;-60
2023/04/20 03:06:17;;;;;;;;;;;;;;;25.41;48.08;96481.80;611074;231;64473;-61
2023/04/20 03:08:46;;;;;;;;;;;;;;;25.41;48.51;96482.59;611148;231;42082;-62
2023/04/20 03:11:21;;;;;;;;;;;;;;;25.39;47.09;96482.09;608654;232;48337;-60
2023/04/20 03:13:50;;;;;;;;;;;;;;;25.39;48.00;96484.78;611305;232;64447;-60
2023/04/20 03:16:18;;;;;;;;;;;;;;;25.38;47.70;96480.52;612118;230;64727;-60
2023/04/20 03:18:47;;;;;;;;;;;;;;;25.37;47.39;96476.26;611508;231;46037;-62
2023/04/20 03:21:15;;;;;;;;;;;;;;;25.37;47.08;96484.33;611345;231;67088;-61
2023/04/20 03:23:43;;;;;;;;;;;;;;;25.36;47.53;96488.11;611382;232;65678;-60
2023/04/20 03:26:12;;;;;;;;;;;;;;;25.36;48.44;96490.80;610928;231;67375;-59
2023/04/20 03:28:42;;;;;;;;;;;;;;;25.35;47.78;96491.12;611425;231;45663;-60
2023/04/20 03:31:11;;;;;;;;;;;;;;;25.35;48.55;96497.29;611165;231;62752;-60
2023/04/20 03:33:38;;;;;;;;;;;;;;;25.35;49.32;96496.50;611038;231;67657;-60
2023/04/20 03:36:06;;;;;;;;;;;;;;;25.34;48.00;96506.45;611082;231;67325;-60
2023/04/20 03:38:34;;;;;;;;;;;;;;;25.33;48.84;96494.11;611389;231;65118;-60
2023/04/20 03:41:01;;;;;;;;;;;;;;;25.33;47.74;96494.11;611003;231;65001;-60
2023/04/20 03:43:29;;;;;;;;;;;;;;;25.31;47.59;96490.93;610988;232;67392;-60
2023/04/20 03:45:56;;;;;;;;;;;;;;;25.31;47.76;96492.83;613262;230;64890;-60
2023/04/20 03:48:24;;;;;;;;;;;;;;;25.30;46.79;96492.05;611032;231;67034;-60
2023/04/20 03:50:52;;;;;;;;;;;;;;;25.30;47.55;96494.73;611257;231;67389;-60
2023/04/20 03:53:19;;;;;;;;;;;;;;;25.28;47.25;96491.56;611782;231;64904;-60
2023/04/20 03:55:47;;;;;;;;;;;;;;;25.29;47.13;96501.23;611048;232;67300;-60
2023/04/20 03:58:16;;;;;;;;;;;;;;;25.27;48.61;96495.36;611497;231;43892;-60
2023/04/20 04:00:46;;;;;;;;;;;;;;;25.27;47.77;96494.58;612709;231;46176;-60
2023/04/20 04:03:14;;;;;;;;;;;;;;;25.27;48.23;96497.27;611988;231;66885;-60
2023/04/20 04:05:41;;;;;;;;;;;;;;;25.26;47.99;96493.76;611000;231;67440;-60
2023/04/20 04:08:09;;;;;;;;;;;;;;;25.25;48.73;96492.19;611215;230;62738;-60
2023/04/20 04:10:36;;;;;;;;;;;;;;;25.24;47.15;96490.61;611029;232;65365;-60
2023/04/20 04:13:04;;;;;;;;;;;;;;;25.23;48.02;96499.77;610950;231;65723;-60
2023/04/20 04:15:32;;;;;;;;;;;;;;;25.23;47.72;96492.48;611024;232;65041;-60
2023/04/20 04:18:01;;;;;;;;;;;;;;;25.23;47.48;96494.38;611243;232;48103;-60
2023/04/20 04:20:29;;;;;;;;;;;;;;;25.22;46.90;96496.28;611140;230;67526;-60
2023/04/20 04:22:57;;;;;;;;;;;;;;;25.22;46.92;96503.56;611636;231;65695;-60
2023/04/20 04:25:39;;;;;;;;;;;;;;;25.22;47.62;96503.56;611620;231;49606;-60
2023/04/20 04:28:07;;;;;;;;;;;;;;;25.22;48.25;96498.19;613607;231;65820;-60
2023/04/20 04:30:36;;;;;;;;;;;;;;;25.22;47.59;96508.95;611328;232;62695;-60
2023/04/20 04:33:05;;;;;;;;;;;;;;;25.22;48.33;96506.25;610969;231;64536;-60
2023/04/20 04:35:34;;;;;;;;;;;;;;;25.22;47.07;96506.25;604509;232;67439;-60
2023/04/20 04:38:02;;;;;;;;;;;;;;;25.22;48.01;96498.19;612454;231;62441;-61
2023/04/20 04:40:31;;;;;;;;;;;;;;;25.22;48.03;96504.35;611114;231;64905;-60
2023/04/20 04:42:59;;;;;;;;;;;;;;;25.23;47.17;96507.83;612000;231;67487;-60
2023/04/20 04:45:27;;;;;;;;;;;;;;;25.24;48.96;96504.84;612808;231;65593;-60
2023/04/20 04:47:56;;;;;;;;;;;;;;;25.24;48.86;96507.53;611206;231;67767;-60
2023/04/20 04:50:23;;;;;;;;;;;;;;;25.24;47.94;96499.47;611652;231;67509;-60
2023/04/20 04:52:51;;;;;;;;;;;;;;;25.26;48.86;96509.89;611583;231;65939;-60
2023/04/20 04:55:19;;;;;;;;;;;;;;;25.25;48.19;96506.42;611459;231;64987;-60
2023/04/20 04:57:47;;;;;;;;;;;;;;;25.27;48.24;96499.95;611947;231;67454;-60
2023/04/20 05:00:14;;;;;;;;;;;;;;;25.27;48.31;96513.41;612657;230;65149;-60
2023/04/20 05:02:42;;;;;;;;;;;;;;;25.27;48.18;96505.33;613318;231;67248;-60
2023/04/20 05:05:09;;;;;;;;;;;;;;;25.29;47.73;96511.17;613350;231;67113;-60
2023/04/20 05:07:38;;;;;;;;;;;;;;;25.29;48.16;96509.30;611814;230;65046;-60
2023/04/20 05:10:07;;;;;;;;;;;;;;;25.30;47.28;96516.25;611100;231;67323;-60
2023/04/20 05:12:34;;;;;;;;;;;;;;;25.32;48.54;96507.86;611687;231;66847;-60
2023/04/20 05:15:02;;;;;;;;;;;;;;;25.32;49.13;96511.36;611239;231;65036;-60
2023/04/20 05:17:30;;;;;;;;;;;;;;;25.32;48.76;96511.36;611451;231;66731;-60
2023/04/20 05:19:57;;;;;;;;;;;;;;;25.32;47.64;96514.05;612203;231;66921;-60
2023/04/20 05:22:25;;;;;;;;;;;;;;;25.33;47.92;96518.31;611108;232;65005;-60
2023/04/20 05:24:56;;;;;;;;;;;;;;;25.34;47.80;96511.83;605923;230;49796;-60
2023/04/20 05:27:23;;;;;;;;;;;;;;;25.35;47.52;96513.42;612042;230;64696;-62
2023/04/20 05:29:51;;;;;;;;;;;;;;;25.35;48.92;96523.40;613245;231;62951;-61
2023/04/20 05:32:18;;;;;;;;;;;;;;;25.35;47.14;96518.80;612038;231;66984;-62
2023/04/20 05:34:46;;;;;;;;;;;;;;;25.37;47.63;96521.17;611171;231;66934;-62
2023/04/20 05:37:14;;;;;;;;;;;;;;;25.37;48.91;96524.67;611376;231;62827;-63
2023/04/20 05:39:42;;;;;;;;;;;;;;;25.37;47.75;96515.79;612571;231;65180;-62
2023/04/20 05:42:10;;;;;;;;;;;;;;;25.38;48.00;96522.77;611554;231;64911;-62
2023/04/20 05:44:39;;;;;;;;;;;;;;;25.39;47.46;96524.34;611349;232;65076;-63
2023/04/20 05:47:07;;;;;;;;;;;;;;;25.39;46.03;96525.14;611409;231;67243;-62
2023/04/20 05:49:35;;;;;;;;;;;;;;;25.41;47.99;96525.63;612072;231;66911;-63
2023/04/20 05:52:03;;;;;;;;;;;;;;;25.42;47.82;96529.10;610927;231;65025;-62
2023/04/20 05:54:31;;;;;;;;;;;;;;;25.42;45.52;96532.58;611194;231;65944;-62
2023/04/20 05:56:59;;;;;;;;;;;;;;;25.44;46.28;96537.66;611289;232;65019;-64
2023/04/20 05:59:27;;;;;;;;;;;;;;;25.45;48.04;96541.92;611869;231;65069;-61
2023/04/20 06:01:55;;;;;;;;;;;;;;;25.45;44.18;96534.67;611566;231;67311;-61
2023/04/20 06:04:22;;;;;;;;;;;;;;;25.46;47.68;96530.87;612557;231;66796;-61
2023/04/20 06:06:50;;;;;;;;;;;;;;;25.46;46.97;96535.46;611422;232;65042;-61
2023/04/20 06:09:18;;;;;;;;;;;;;;;25.48;48.70;96535.92;613100;231;67244;-62
2023/04/20 06:11:45;;;;;;;;;;;;;;;25.49;45.87;96531.36;611944;231;67367;-62
2023/04/20 06:14:13;;;;;;;;;;;;;;;25.49;46.65;96539.43;611723;231;65141;-61
2023/04/20 06:16:40;;;;;;;;;;;;;;;25.51;45.44;96540.70;612299;231;67277;-61
2023/04/20 06:19:08;;;;;;;;;;;;;;;25.52;47.15;96533.42;611176;232;67028;-63
2023/04/20 06:21:36;;;;;;;;;;;;;;;25.54;48.40;96541.98;611872;231;65020;-62
2023/04/20 06:24:04;;;;;;;;;;;;;;;25.55;46.61;96538.96;611020;231;67268;-61
2023/04/20 06:26:31;;;;;;;;;;;;;;;25.54;47.01;96537.39;611445;232;67044;-61
2023/04/20 06:28:59;;;;;;;;;;;;;;;25.57;45.36;96541.35;611322;231;62985;-61
2023/04/20 06:31:26;;;;;;;;;;;;;;;25.57;47.66;96544.05;610685;231;64763;-61
2023/04/20 06:33:53;;;;;;;;;;;;;;;25.57;48.84;96541.35;611035;231;67036;-60
2023/04/20 06:36:21;;;;;;;;;;;;;;;25.56;49.61;96539.75;611098;231;65143;-61
2023/04/20 06:38:48;;;;;;;;;;;;;;;25.55;47.09;96535.48;611441;232;67475;-60
2023/04/20 06:41:16;;;;;;;;;;;;;;;25.55;49.30;96538.17;611207;232;64935;-62
2023/04/20 06:43:44;;;;;;;;;;;;;;;25.54;48.19;96534.70;610982;232;64846;-65
2023/04/20 06:46:12;;;;;;;;;;;;;;;25.55;47.84;96536.27;611119;230;67099;-62
2023/04/20 06:48:39;;;;;;;;;;;;;;;25.58;47.07;96542.92;612099;231;65812;-61
2023/04/20 06:51:08;;;;;;;;;;;;;;;25.57;46.99;96550.21;612123;230;43608;-63
2023/04/20 06:53:36;;;;;;;;;;;;;;;25.58;46.80;96542.92;610911;231;67161;-63
2023/04/20 06:56:04;;;;;;;;;;;;;;;25.59;46.34;96552.58;611334;229;64846;-62
2023/04/20 06:58:31;;;;;;;;;;;;;;;25.59;49.11;96548.02;611241;231;65158;-62
2023/04/20 07:00:59;;;;;;;;;;;;;;;25.60;47.67;96560.34;611490;232;67063;-63
2023/04/20 07:03:26;;;;;;;;;;;;;;;25.62;47.32;96554.67;611150;231;64839;-62
2023/04/20 07:05:53;;;;;;;;;;;;;;;25.63;47.04;96548.17;610828;232;63017;-62
2023/04/20 07:08:22;;;;;;;;;;;;;;;25.64;45.84;96553.22;611219;231;67917;-61
2023/04/20 07:10:49;;;;;;;;;;;;;;;25.66;47.18;96556.41;611427;232;67527;-62
2023/04/20 07:13:20;;;;;;;;;;;;;;;25.66;46.12;96556.41;611132;232;65112;-61
2023/04/20 07:15:48;;;;;;;;;;;;;;;25.69;44.81;96552.30;611402;232;67236;-59
2023/04/20 07:18:15;;;;;;;;;;;;;;;25.70;47.54;96551.20;611322;232;66683;-59
2023/04/20 07:20:43;;;;;;;;;;;;;;;25.70;46.77;96556.59;611732;231;65062;-60
2023/04/20 07:23:10;;;;;;;;;;;;;;;25.71;46.03;96554.69;613002;231;65080;-60
2023/04/20 07:25:38;;;;;;;;;;;;;;;25.71;47.06;96566.23;611779;230;67517;-59
2023/04/20 07:28:05;;;;;;;;;;;;;;;25.73;47.01;96560.53;614833;230;64929;-59
2023/04/20 07:30:32;;;;;;;;;;;;;;;25.73;47.61;96555.14;612325;231;67212;-60
2023/04/20 07:33:00;;;;;;;;;;;;;;;25.74;47.35;96559.44;610912;232;67033;-59
2023/04/20 07:35:27;;;;;;;;;;;;;;;25.75;47.33;96556.42;612534;231;65058;-59
2023/04/20 07:37:55;;;;;;;;;;;;;;;25.75;46.93;96553.73;611003;231;67067;-59
2023/04/20 07:40:22;;;;;;;;;;;;;;;25.76;46.65;96554.55;610913;231;64944;-59
2023/04/20 07:42:50;;;;;;;;;;;;;;;25.76;46.23;96546.47;611274;231;65072;-60
2023/04/20 07:45:17;;;;;;;;;;;;;;;25.74;44.25;96544.08;611142;232;66927;-60
2023/04/20 07:47:46;;;;;;;;;;;;;;;25.75;47.23;96545.66;611360;232;65012;-59
2023/04/20 07:50:14;;;;;;;;;;;;;;;25.75;47.31;96542.97;611604;231;65137;-60
2023/04/20 07:52:43;;;;;;;;;;;;;;;25.75;46.93;96542.97;612676;231;68257;-60
2023/04/20 07:55:11;;;;;;;;;;;;;;;25.76;44.93;96549.16;611157;232;64841;-60
2023/04/20 07:57:39;;;;;;;;;;;;;;;25.77;48.47;96545.36;611303;231;64997;-59
2023/04/20 08:00:08;;;;;;;;;;;;;;;25.75;48.13;96544.87;610938;232;67051;-60
2023/04/20 08:02:41;;;;;;;;;;;;;;;25.75;48.02;96542.97;610933;231;37805;-60
2023/04/20 08:05:11;;;;;;;;;;;;;;;25.75;48.32;96537.58;612474;230;65009;-60
2023/04/20 08:07:39;;;;;;;;;;;;;;;25.75;46.79;96542.97;611869;230;65062;-61
2023/04/20 08:10:07;;;;;;;;;;;;;;;25.79;42.81;96543.15;612715;230;67054;-60
2023/04/20 08:12:35;;;;;;;;;;;;;;;25.78;44.15;96533.47;611920;231;65085;-59
2023/04/20 08:15:05;;;;;;;;;;;;;;;25.77;47.02;96532.69;612982;230;67290;-60
2023/04/20 08:17:32;;;;;;;;;;;;;;;25.77;46.83;96532.69;612754;231;67116;-60
2023/04/20 08:20:00;;;;;;;;;;;;;;;25.77;46.47;96529.20;611003;231;65057;-59
2023/04/20 08:22:28;;;;;;;;;;;;;;;25.76;47.31;96525.73;611137;232;65026;-61
2023/04/20 08:24:59;;;;;;;;;;;;;;;25.76;46.06;96520.34;611377;231;67048;-61
2023/04/20 08:27:28;;;;;;;;;;;;;;;25.76;46.91;96520.34;610864;232;62994;-61
2023/04/20 08:29:56;;;;;;;;;;;;;;;25.76;46.21;96516.87;611546;231;65007;-61
2023/04/20 08:32:25;;;;;;;;;;;;;;;25.75;45.71;96520.64;613309;230;64246;-61
2023/04/20 08:34:53;;;;;;;;;;;;;;;25.76;45.25;96522.25;612045;231;65011;-61
2023/04/20 08:37:20;;;;;;;;;;;;;;;25.75;45.70;96517.95;611985;231;65230;-61
2023/04/20 08:39:48;;;;;;;;;;;;;;;25.76;47.09;96519.55;611526;231;67413;-62
2023/04/20 08:42:15;;;;;;;;;;;;;;;25.75;46.83;96518.74;610941;232;63020;-61
2023/04/20 08:44:43;;;;;;;;;;;;;;;25.74;45.99;96517.16;611811;231;67237;-61
2023/04/20 08:47:11;;;;;;;;;;;;;;;25.75;44.90;96515.27;611954;231;67042;-61
2023/04/20 08:49:39;;;;;;;;;;;;;;;25.75;46.06;96512.57;611301;231;65150;-61
2023/04/20 08:52:09;;;;;;;;;;;;;;;25.74;44.98;96519.86;610971;232;65266;-62
2023/04/20 08:54:37;;;;;;;;;;;;;;;25.75;46.01;96516.05;611306;232;64313;-61
2023/04/20 08:57:04;;;;;;;;;;;;;;;25.74;44.63;96522.55;610913;231;65120;-61
2023/04/20 08:59:32;;;;;;;;;;;;;;;25.74;44.52;96522.55;610943;231;67026;-61
2023/04/20 09:02:02;;;;;;;;;;;;;;;25.74;46.51;96519.86;612834;231;67103;-60
2023/04/20 09:04:29;;;;;;;;;;;;;;;25.73;45.33;96518.28;611368;230;65053;-60
2023/04/20 09:06:57;;;;;;;;;;;;;;;25.74;45.64;96519.07;612216;231;67473;-60
2023/04/20 09:09:25;;;;;;;;;;;;;;;25.73;45.63;96520.16;612021;231;67117;-61
2023/04/20 09:12:01;;;;;;;;;;;;;;;25.73;45.80;96520.16;603591;232;63891;-60
2023/04/20 09:14:32;;;;;;;;;;;;;;;25.77;45.90;96523.82;606996;231;46916;-60
2023/04/20 09:17:01;;;;;;;;;;;;;;;25.76;44.86;96523.03;610917;231;67864;-61
2023/04/20 09:19:29;;;;;;;;;;;;;;;25.78;44.89;96528.09;612468;231;65124;-61
2023/04/20 09:21:58;;;;;;;;;;;;;;;25.79;45.03;96519.72;611220;231;66984;-61
2023/04/20 09:24:33;;;;;;;;;;;;;;;25.78;46.58;96526.21;611815;231;64673;-60
2023/04/20 09:27:01;;;;;;;;;;;;;;;25.80;46.55;96528.58;612498;231;62990;-61
2023/04/20 09:29:29;;;;;;;;;;;;;;;25.79;45.46;96527.00;611160;232;66994;-62
2023/04/20 09:31:56;;;;;;;;;;;;;;;25.80;45.82;96529.36;610856;231;66816;-61
2023/04/20 09:34:24;;;;;;;;;;;;;;;25.80;47.22;96521.28;612083;231;65224;-61
2023/04/20 09:36:57;;;;;;;;;;;;;;;25.80;45.45;96515.91;613425;230;64708;-61
2023/04/20 09:39:22;;;;;;;;;;;;;;;25.82;46.18;96512.91;613157;231;64738;-60
2023/04/20 09:41:51;;;;;;;;;;;;;;;25.82;46.89;96512.91;613533;230;65077;-61
2023/04/20 09:44:18;;;;;;;;;;;;;;;25.81;44.27;96509.44;608483;229;66996;-61
2023/04/20 09:46:46;;;;;;;;;;;;;;;25.82;46.67;96504.84;606750;233;66801;-61
2023/04/20 09:49:14;;;;;;;;;;;;;;;25.82;45.35;96505.63;604487;234;65045;-61
2023/04/20 09:51:45;;;;;;;;;;;;;;;25.83;47.09;96504.53;604751;233;67198;-62
2023/04/20 09:54:14;;;;;;;;;;;;;;;25.82;47.41;96507.53;604436;234;67396;-61
2023/04/20 09:56:42;;;;;;;;;;;;;;;25.82;48.22;96500.23;605978;233;65100;-61
2023/04/20 09:59:09;;;;;;;;;;;;;;;25.82;47.96;96491.38;606727;232;67419;-61
2023/04/20 10:01:37;;;;;;;;;;;;;;;25.83;47.72;96491.08;604537;234;66824;-61
2023/04/20 10:04:07;;;;;;;;;;;;;;;25.82;47.18;96483.30;605393;234;62925;-61
2023/04/20 10:06:35;;;;;;;;;;;;;;;25.82;46.08;96478.70;604226;234;67275;-60
2023/04/20 10:09:04;;;;;;;;;;;;;;;25.82;46.82;96486.78;605042;234;66969;-60
2023/04/20 10:11:33;;;;;;;;;;;;;;;25.83;47.73;96485.70;604727;234;65034;-60
2023/04/20 10:14:02;;;;;;;;;;;;;;;25.82;45.27;96489.47;607636;233;67090;-60
2023/04/20 10:16:30;;;;;;;;;;;;;;;25.82;47.69;96492.16;604173;233;67021;-60
2023/04/20 10:19:04;;;;;;;;;;;;;;;25.81;47.71;96479.83;608226;232;65028;-60
2023/04/20 10:21:32;;;;;;;;;;;;;;;25.82;46.27;96477.92;607780;233;65425;-60
2023/04/20 10:24:01;;;;;;;;;;;;;;;25.81;47.28;96481.70;606383;233;67048;-60
2023/04/20 10:26:39;;;;;;;;;;;;;;;25.80;46.02;96478.22;609540;232;65068;-60
2023/04/20 10:29:07;;;;;;;;;;;;;;;25.80;48.31;96480.91;606832;233;65204;-60
2023/04/20 10:31:35;;;;;;;;;;;;;;;25.80;45.96;96480.13;605590;234;67037;-60
2023/04/20 10:34:03;;;;;;;;;;;;;;;25.80;48.03;96477.44;604699;234;65027;-60
2023/04/20 10:36:33;;;;;;;;;;;;;;;25.80;46.19;96472.05;604622;233;67192;-60
2023/04/20 10:39:03;;;;;;;;;;;;;;;25.80;48.10;96459.38;604554;234;67071;-60
2023/04/20 10:41:30;;;;;;;;;;;;;;;25.79;46.75;96468.58;604708;233;65153;-62
2023/04/20 10:44:07;;;;;;;;;;;;;;;25.80;46.20;96469.36;604446;234;67323;-60
2023/04/20 10:46:35;;;;;;;;;;;;;;;25.79;46.24;96471.27;604488;234;67138;-61
2023/04/20 10:49:02;;;;;;;;;;;;;;;25.80;48.38;96475.53;605033;233;65124;-61
2023/04/20 10:51:30;;;;;;;;;;;;;;;25.80;47.32;96475.53;605019;234;67273;-61
2023/04/20 10:53:59;;;;;;;;;;;;;;;25.82;47.33;96477.92;606919;232;65823;-61
2023/04/20 10:56:27;;;;;;;;;;;;;;;25.82;48.89;96473.32;604460;232;65074;-61
2023/04/20 10:58:54;;;;;;;;;;;;;;;25.81;47.73;96474.44;604647;234;65011;-61
2023/04/20 11:01:22;;;;;;;;;;;;;;;25.83;49.12;96474.11;604485;234;66813;-61
2023/04/20 11:03:50;;;;;;;;;;;;;;;25.82;47.35;96467.94;605575;233;63004;-60
2023/04/20 11:06:18;;;;;;;;;;;;;;;25.83;47.01;96469.55;604867;233;67242;-61
2023/04/20 11:08:46;;;;;;;;;;;;;;;25.84;47.48;96471.14;607569;232;65087;-61
2023/04/20 11:11:27;;;;;;;;;;;;;;;25.84;47.32;96463.07;604476;234;65058;-62
2023/04/20 11:14:08;;;;;;;;;;;;;;;25.85;47.88;96455.78;605515;233;67156;-61
2023/04/20 11:16:36;;;;;;;;;;;;;;;25.86;48.05;96458.17;602962;233;64862;-63
2023/04/20 11:19:04;;;;;;;;;;;;;;;25.86;47.41;96463.55;612558;230;63029;-61
2023/04/20 11:21:37;;;;;;;;;;;;;;;25.85;47.41;96464.64;611813;231;67239;-61
2023/04/20 11:24:05;;;;;;;;;;;;;;;25.87;49.67;96461.65;611124;231;67051;-61
2023/04/20 11:26:36;;;;;;;;;;;;;;;25.87;48.00;96464.34;611864;230;65038;-60
2023/04/20 11:29:04;;;;;;;;;;;;;;;25.85;46.95;96461.95;614126;231;64652;-62
2023/04/20 11:31:31;;;;;;;;;;;;;;;25.88;48.19;96460.53;614089;230;67072;-65
2023/04/20 11:33:59;;;;;;;;;;;;;;;25.89;47.80;96464.80;613128;231;65056;-62
2023/04/20 11:36:28;;;;;;;;;;;;;;;25.88;48.02;96460.53;613094;231;68151;-63
2023/04/20 11:38:57;;;;;;;;;;;;;;;25.89;47.17;96462.92;613166;231;65057;-61
2023/04/20 11:41:25;;;;;;;;;;;;;;;25.89;47.15;96457.53;612851;231;65043;-62
2023/04/20 11:43:53;;;;;;;;;;;;;;;25.90;45.82;96461.02;613170;229;65009;-61
2023/04/20 11:46:21;;;;;;;;;;;;;;;25.90;48.94;96456.41;613135;230;67077;-61
2023/04/20 11:48:48;;;;;;;;;;;;;;;25.91;47.90;96449.13;611509;230;65093;-62
2023/04/20 11:51:16;;;;;;;;;;;;;;;25.91;46.27;96452.61;611639;230;67108;-61
2023/04/20 11:53:45;;;;;;;;;;;;;;;25.93;46.97;96456.90;611288;231;64937;-61
2023/04/20 11:56:12;;;;;;;;;;;;;;;25.94;49.53;96461.16;612284;231;63881;-61
2023/04/20 11:58:40;;;;;;;;;;;;;;;25.94;47.69;96453.09;611707;231;65009;-60
2023/04/20 12:01:09;;;;;;;;;;;;;;;25.95;47.63;96449.30;611036;232;67103;-61
2023/04/20 12:03:37;;;;;;;;;;;;;;;25.95;45.81;96455.48;611228;231;65161;-61
2023/04/20 12:06:04;;;;;;;;;;;;;;;25.95;47.64;96455.48;611716;232;67233;-61
2023/04/20 12:08:31;;;;;;;;;;;;;;;25.95;48.09;96450.09;611348;232;67173;-61
2023/04/20 12:10:59;;;;;;;;;;;;;;;25.99;47.63;96450.23;611912;231;62896;-62
2023/04/20 12:13:26;;;;;;;;;;;;;;;25.99;46.72;96444.86;611548;230;67219;-60
2023/04/20 12:15:56;;;;;;;;;;;;;;;26.00;46.90;96451.81;611381;231;66883;-61
2023/04/20 12:18:23;;;;;;;;;;;;;;;26.00;44.77;96441.86;610704;232;63083;-61
2023/04/20 12:20:50;;;;;;;;;;;;;;;26.00;48.17;96441.86;611291;231;64965;-60
2023/04/20 12:23:18;;;;;;;;;;;;;;;26.02;47.43;96445.00;610545;230;67368;-61
2023/04/20 12:25:48;;;;;;;;;;;;;;;26.03;47.61;96441.22;611500;230;62979;-61
2023/04/20 12:28:15;;;;;;;;;;;;;;;26.03;46.52;96448.52;611161;230;65007;-60
2023/04/20 12:30:42;;;;;;;;;;;;;;;26.04;47.85;96440.10;611216;232;66855;-60
2023/04/20 12:33:11;;;;;;;;;;;;;;;26.04;44.73;96425.85;611199;232;65002;-60
2023/04/20 12:35:39;;;;;;;;;;;;;;;26.06;47.94;96429.81;611764;230;65061;-59
2023/04/20 12:38:06;;;;;;;;;;;;;;;26.05;46.27;96420.13;612946;231;66977;-59
2023/04/20 12:40:34;;;;;;;;;;;;;;;26.06;45.67;96421.73;611721;232;63137;-60
2023/04/20 12:43:02;;;;;;;;;;;;;;;26.07;45.54;96411.75;611697;231;66880;-59
2023/04/20 12:45:30;;;;;;;;;;;;;;;26.07;45.02;96407.15;611880;231;67013;-60
2023/04/20 12:47:57;;;;;;;;;;;;;;;26.08;44.95;96403.37;611244;232;62990;-61
2023/04/20 12:50:25;;;;;;;;;;;;;;;26.09;46.61;96406.84;611475;231;65244;-60
2023/04/20 12:52:54;;;;;;;;;;;;;;;26.10;46.94;96403.03;612568;231;64868;-59